Welcome to La Porte Aviation Services!

An aviation adventure awaits

Current Weather Conditions

Available data for KPPO from the past 2 hours
LA PORTE, IN
Metar
KPPO 252335Z AUTO 19004KT 10SM SCT095 30/12 A2980 RMK AO2 T02950123

23:35 UTC

Wind: 190° 4kt

Visibility: 10 SM

Sky: SCT 9500 ft

Temp: 30 deg C / 86 deg F

Dewpoint: 12 deg C / 53.6 deg F

Pressure: 29.8 inHg

Pirep (1)
ORD UA /OV OXI/TM 2308/FL360/TP B757/TB LGT

Connect with us on Facebook!

Facebook By Weblizar Powered By Weblizar